sensor_id;sensor_type;location;lat;lon;timestamp;P1;durP1;ratioP1;P2;durP2;ratioP2
20421;SDS011;10370;53.102;18.034;2023-09-12T00:01:20;43.08;;;25.92;;
20421;SDS011;10370;53.102;18.034;2023-09-12T00:06:43;42.63;;;25.80;;
20421;SDS011;10370;53.102;18.034;2023-09-12T00:12:06;45.13;;;24.92;;
20421;SDS011;10370;53.102;18.034;2023-09-12T00:17:30;40.67;;;24.52;;
20421;SDS011;10370;53.102;18.034;2023-09-12T00:22:52;41.38;;;24.52;;
20421;SDS011;10370;53.102;18.034;2023-09-12T00:28:16;42.97;;;24.45;;
20421;SDS011;10370;53.102;18.034;2023-09-12T00:33:39;40.88;;;23.88;;
20421;SDS011;10370;53.102;18.034;2023-09-12T00:39:02;38.35;;;23.48;;
20421;SDS011;10370;53.102;18.034;2023-09-12T00:44:25;37.15;;;22.30;;
20421;SDS011;10370;53.102;18.034;2023-09-12T00:49:48;39.53;;;23.60;;
20421;SDS011;10370;53.102;18.034;2023-09-12T00:55:17;38.05;;;22.88;;
20421;SDS011;10370;53.102;18.034;2023-09-12T01:00:40;37.10;;;23.77;;
20421;SDS011;10370;53.102;18.034;2023-09-12T01:06:04;39.13;;;22.88;;
20421;SDS011;10370;53.102;18.034;2023-09-12T01:11:29;34.47;;;22.10;;
20421;SDS011;10370;53.102;18.034;2023-09-12T01:16:52;34.97;;;22.08;;
20421;SDS011;10370;53.102;18.034;2023-09-12T01:28:05;35.50;;;22.58;;
20421;SDS011;10370;53.102;18.034;2023-09-12T01:33:31;32.38;;;20.23;;
20421;SDS011;10370;53.102;18.034;2023-09-12T01:38:54;37.33;;;20.70;;
20421;SDS011;10370;53.102;18.034;2023-09-12T01:44:17;34.15;;;22.27;;
20421;SDS011;10370;53.102;18.034;2023-09-12T01:49:42;34.03;;;21.67;;
20421;SDS011;10370;53.102;18.034;2023-09-12T01:55:07;26.92;;;19.27;;
20421;SDS011;10370;53.102;18.034;2023-09-12T02:00:33;26.45;;;17.15;;
20421;SDS011;10370;53.102;18.034;2023-09-12T02:05:56;25.63;;;17.63;;
20421;SDS011;10370;53.102;18.034;2023-09-12T02:11:19;26.65;;;17.30;;
20421;SDS011;10370;53.102;18.034;2023-09-12T02:16:41;32.63;;;20.33;;
20421;SDS011;10370;53.102;18.034;2023-09-12T02:22:05;34.42;;;22.38;;
20421;SDS011;10370;53.102;18.034;2023-09-12T02:27:28;34.88;;;22.25;;
20421;SDS011;10370;53.102;18.034;2023-09-12T02:32:51;36.10;;;21.48;;
20421;SDS011;10370;53.102;18.034;2023-09-12T02:38:14;39.03;;;23.60;;
20421;SDS011;10370;53.102;18.034;2023-09-12T02:43:37;37.60;;;22.77;;
20421;SDS011;10370;53.102;18.034;2023-09-12T02:49:03;44.38;;;23.50;;
20421;SDS011;10370;53.102;18.034;2023-09-12T02:54:26;37.40;;;23.63;;
20421;SDS011;10370;53.102;18.034;2023-09-12T02:59:48;43.42;;;23.88;;
20421;SDS011;10370;53.102;18.034;2023-09-12T03:05:11;31.05;;;19.95;;
20421;SDS011;10370;53.102;18.034;2023-09-12T03:10:34;35.05;;;20.50;;
20421;SDS011;10370;53.102;18.034;2023-09-12T03:15:57;36.95;;;21.92;;
20421;SDS011;10370;53.102;18.034;2023-09-12T03:21:19;37.53;;;21.83;;
20421;SDS011;10370;53.102;18.034;2023-09-12T03:26:44;42.33;;;23.77;;
20421;SDS011;10370;53.102;18.034;2023-09-12T03:32:07;42.22;;;23.55;;
20421;SDS011;10370;53.102;18.034;2023-09-12T03:37:30;53.25;;;28.17;;
20421;SDS011;10370;53.102;18.034;2023-09-12T03:42:53;44.75;;;24.65;;
20421;SDS011;10370;53.102;18.034;2023-09-12T03:48:16;41.17;;;24.35;;
20421;SDS011;10370;53.102;18.034;2023-09-12T03:53:39;43.35;;;24.77;;
20421;SDS011;10370;53.102;18.034;2023-09-12T03:59:02;38.47;;;21.75;;
20421;SDS011;10370;53.102;18.034;2023-09-12T04:04:24;34.90;;;21.60;;
20421;SDS011;10370;53.102;18.034;2023-09-12T04:09:47;34.95;;;22.65;;
20421;SDS011;10370;53.102;18.034;2023-09-12T04:15:10;33.80;;;18.98;;
20421;SDS011;10370;53.102;18.034;2023-09-12T04:20:33;43.58;;;22.65;;
20421;SDS011;10370;53.102;18.034;2023-09-12T04:25:56;79.40;;;21.92;;
20421;SDS011;10370;53.102;18.034;2023-09-12T04:31:22;74.45;;;23.13;;
20421;SDS011;10370;53.102;18.034;2023-09-12T04:36:49;44.92;;;20.67;;
20421;SDS011;10370;53.102;18.034;2023-09-12T04:42:12;68.75;;;20.08;;
20421;SDS011;10370;53.102;18.034;2023-09-12T04:47:35;60.25;;;18.73;;
20421;SDS011;10370;53.102;18.034;2023-09-12T04:52:58;57.30;;;20.17;;
20421;SDS011;10370;53.102;18.034;2023-09-12T04:58:20;48.75;;;17.38;;
20421;SDS011;10370;53.102;18.034;2023-09-12T05:03:43;44.17;;;17.52;;
20421;SDS011;10370;53.102;18.034;2023-09-12T05:09:06;43.90;;;18.15;;
20421;SDS011;10370;53.102;18.034;2023-09-12T05:14:31;53.17;;;18.77;;
20421;SDS011;10370;53.102;18.034;2023-09-12T05:19:53;45.38;;;20.38;;
20421;SDS011;10370;53.102;18.034;2023-09-12T05:25:16;56.75;;;22.98;;
20421;SDS011;10370;53.102;18.034;2023-09-12T05:30:39;53.63;;;22.00;;
20421;SDS011;10370;53.102;18.034;2023-09-12T05:36:01;65.93;;;23.50;;
20421;SDS011;10370;53.102;18.034;2023-09-12T05:41:25;50.00;;;21.73;;
20421;SDS011;10370;53.102;18.034;2023-09-12T05:46:47;45.75;;;22.90;;
20421;SDS011;10370;53.102;18.034;2023-09-12T05:52:10;36.05;;;22.55;;
20421;SDS011;10370;53.102;18.034;2023-09-12T05:57:33;32.47;;;21.33;;
20421;SDS011;10370;53.102;18.034;2023-09-12T06:02:56;37.72;;;23.00;;
20421;SDS011;10370;53.102;18.034;2023-09-12T06:08:18;41.83;;;24.05;;
20421;SDS011;10370;53.102;18.034;2023-09-12T06:13:41;50.00;;;25.88;;
20421;SDS011;10370;53.102;18.034;2023-09-12T06:19:04;62.17;;;29.65;;
20421;SDS011;10370;53.102;18.034;2023-09-12T06:24:26;67.60;;;30.05;;
20421;SDS011;10370;53.102;18.034;2023-09-12T06:29:49;81.35;;;31.55;;
20421;SDS011;10370;53.102;18.034;2023-09-12T06:35:12;82.95;;;29.67;;
20421;SDS011;10370;53.102;18.034;2023-09-12T06:40:35;82.03;;;27.25;;
20421;SDS011;10370;53.102;18.034;2023-09-12T06:45:57;88.05;;;29.67;;
20421;SDS011;10370;53.102;18.034;2023-09-12T06:51:20;66.38;;;27.10;;
20421;SDS011;10370;53.102;18.034;2023-09-12T06:56:50;50.67;;;24.65;;
20421;SDS011;10370;53.102;18.034;2023-09-12T07:02:13;56.50;;;25.67;;
20421;SDS011;10370;53.102;18.034;2023-09-12T07:07:35;52.13;;;24.83;;
20421;SDS011;10370;53.102;18.034;2023-09-12T07:12:58;47.97;;;26.27;;
20421;SDS011;10370;53.102;18.034;2023-09-12T07:18:21;46.88;;;24.85;;
20421;SDS011;10370;53.102;18.034;2023-09-12T07:23:44;40.33;;;24.23;;
20421;SDS011;10370;53.102;18.034;2023-09-12T07:29:06;36.97;;;23.58;;
20421;SDS011;10370;53.102;18.034;2023-09-12T07:34:29;35.40;;;22.50;;
20421;SDS011;10370;53.102;18.034;2023-09-12T07:39:52;34.35;;;21.83;;
20421;SDS011;10370;53.102;18.034;2023-09-12T07:45:14;34.08;;;21.65;;
20421;SDS011;10370;53.102;18.034;2023-09-12T07:50:37;35.47;;;22.33;;
20421;SDS011;10370;53.102;18.034;2023-09-12T07:56:01;38.25;;;21.90;;
20421;SDS011;10370;53.102;18.034;2023-09-12T08:01:24;35.88;;;21.40;;
20421;SDS011;10370;53.102;18.034;2023-09-12T08:06:49;37.20;;;20.05;;
20421;SDS011;10370;53.102;18.034;2023-09-12T08:12:19;29.27;;;18.70;;
20421;SDS011;10370;53.102;18.034;2023-09-12T08:17:43;31.00;;;17.95;;
20421;SDS011;10370;53.102;18.034;2023-09-12T08:23:05;26.23;;;16.05;;
20421;SDS011;10370;53.102;18.034;2023-09-12T08:28:28;25.65;;;15.80;;
20421;SDS011;10370;53.102;18.034;2023-09-12T08:33:51;26.65;;;16.10;;
20421;SDS011;10370;53.102;18.034;2023-09-12T08:39:15;25.63;;;15.38;;
20421;SDS011;10370;53.102;18.034;2023-09-12T08:44:39;24.45;;;15.45;;
20421;SDS011;10370;53.102;18.034;2023-09-12T08:50:04;21.48;;;14.07;;
20421;SDS011;10370;53.102;18.034;2023-09-12T08:55:27;22.58;;;13.07;;
20421;SDS011;10370;53.102;18.034;2023-09-12T09:00:51;36.85;;;12.68;;
20421;SDS011;10370;53.102;18.034;2023-09-12T09:06:14;17.42;;;12.40;;
20421;SDS011;10370;53.102;18.034;2023-09-12T09:11:38;18.83;;;12.18;;
20421;SDS011;10370;53.102;18.034;2023-09-12T09:17:01;17.92;;;12.57;;
20421;SDS011;10370;53.102;18.034;2023-09-12T09:22:24;17.08;;;12.48;;
20421;SDS011;10370;53.102;18.034;2023-09-12T09:27:48;22.20;;;12.48;;
20421;SDS011;10370;53.102;18.034;2023-09-12T09:33:11;27.20;;;12.82;;
20421;SDS011;10370;53.102;18.034;2023-09-12T09:38:34;18.02;;;13.05;;
20421;SDS011;10370;53.102;18.034;2023-09-12T09:43:58;18.52;;;12.05;;
20421;SDS011;10370;53.102;18.034;2023-09-12T09:49:21;15.52;;;11.32;;
20421;SDS011;10370;53.102;18.034;2023-09-12T09:54:44;15.70;;;11.32;;
20421;SDS011;10370;53.102;18.034;2023-09-12T10:00:08;16.00;;;11.43;;
20421;SDS011;10370;53.102;18.034;2023-09-12T10:05:37;20.35;;;11.60;;
20421;SDS011;10370;53.102;18.034;2023-09-12T10:11:00;13.55;;;10.82;;
20421;SDS011;10370;53.102;18.034;2023-09-12T10:16:24;17.75;;;11.63;;
20421;SDS011;10370;53.102;18.034;2023-09-12T10:21:54;16.83;;;11.57;;
20421;SDS011;10370;53.102;18.034;2023-09-12T10:27:20;38.40;;;12.38;;
20421;SDS011;10370;53.102;18.034;2023-09-12T10:32:46;15.45;;;11.57;;
20421;SDS011;10370;53.102;18.034;2023-09-12T10:38:10;18.58;;;11.65;;
20421;SDS011;10370;53.102;18.034;2023-09-12T10:43:36;16.20;;;11.10;;
20421;SDS011;10370;53.102;18.034;2023-09-12T10:49:00;12.98;;;10.10;;
20421;SDS011;10370;53.102;18.034;2023-09-12T10:54:24;13.57;;;10.45;;
20421;SDS011;10370;53.102;18.034;2023-09-12T11:05:36;13.48;;;10.05;;
20421;SDS011;10370;53.102;18.034;2023-09-12T11:11:21;12.63;;;9.93;;
20421;SDS011;10370;53.102;18.034;2023-09-12T11:16:50;16.10;;;10.30;;
20421;SDS011;10370;53.102;18.034;2023-09-12T11:22:30;14.45;;;9.63;;
20421;SDS011;10370;53.102;18.034;2023-09-12T11:33:16;16.05;;;10.70;;
20421;SDS011;10370;53.102;18.034;2023-09-12T11:38:39;14.95;;;10.32;;
20421;SDS011;10370;53.102;18.034;2023-09-12T11:44:05;12.43;;;9.98;;
20421;SDS011;10370;53.102;18.034;2023-09-12T11:49:35;13.05;;;10.85;;
20421;SDS011;10370;53.102;18.034;2023-09-12T11:54:59;12.50;;;10.18;;
20421;SDS011;10370;53.102;18.034;2023-09-12T12:00:22;13.18;;;10.60;;
20421;SDS011;10370;53.102;18.034;2023-09-12T12:05:48;14.55;;;10.23;;
20421;SDS011;10370;53.102;18.034;2023-09-12T12:11:12;13.30;;;9.43;;
20421;SDS011;10370;53.102;18.034;2023-09-12T12:16:35;13.85;;;9.57;;
20421;SDS011;10370;53.102;18.034;2023-09-12T12:22:07;11.30;;;9.18;;
20421;SDS011;10370;53.102;18.034;2023-09-12T12:27:32;14.38;;;10.13;;
20421;SDS011;10370;53.102;18.034;2023-09-12T12:32:55;15.80;;;10.05;;
20421;SDS011;10370;53.102;18.034;2023-09-12T12:38:17;15.25;;;10.13;;
20421;SDS011;10370;53.102;18.034;2023-09-12T12:43:41;16.05;;;9.90;;
20421;SDS011;10370;53.102;18.034;2023-09-12T12:49:04;14.15;;;9.30;;
20421;SDS011;10370;53.102;18.034;2023-09-12T12:54:31;12.43;;;10.40;;
20421;SDS011;10370;53.102;18.034;2023-09-12T12:59:55;13.05;;;10.43;;
20421;SDS011;10370;53.102;18.034;2023-09-12T13:05:29;12.70;;;9.80;;
20421;SDS011;10370;53.102;18.034;2023-09-12T13:10:54;15.20;;;10.35;;
20421;SDS011;10370;53.102;18.034;2023-09-12T13:16:18;13.65;;;10.48;;
20421;SDS011;10370;53.102;18.034;2023-09-12T13:21:41;12.60;;;9.82;;
20421;SDS011;10370;53.102;18.034;2023-09-12T13:27:05;13.07;;;9.60;;
20421;SDS011;10370;53.102;18.034;2023-09-12T13:32:27;12.15;;;9.85;;
20421;SDS011;10370;53.102;18.034;2023-09-12T13:37:50;12.88;;;9.70;;
20421;SDS011;10370;53.102;18.034;2023-09-12T13:43:13;12.50;;;9.98;;
20421;SDS011;10370;53.102;18.034;2023-09-12T13:48:37;14.55;;;10.55;;
20421;SDS011;10370;53.102;18.034;2023-09-12T13:54:00;14.50;;;10.18;;
20421;SDS011;10370;53.102;18.034;2023-09-12T13:59:23;14.70;;;9.57;;
20421;SDS011;10370;53.102;18.034;2023-09-12T14:04:47;14.05;;;9.52;;
20421;SDS011;10370;53.102;18.034;2023-09-12T14:10:20;17.65;;;10.13;;
20421;SDS011;10370;53.102;18.034;2023-09-12T14:15:52;14.82;;;10.10;;
20421;SDS011;10370;53.102;18.034;2023-09-12T14:21:16;12.38;;;9.40;;
20421;SDS011;10370;53.102;18.034;2023-09-12T14:26:40;12.93;;;10.23;;
20421;SDS011;10370;53.102;18.034;2023-09-12T14:32:02;11.57;;;9.65;;
20421;SDS011;10370;53.102;18.034;2023-09-12T14:37:25;16.42;;;10.05;;
20421;SDS011;10370;53.102;18.034;2023-09-12T14:42:49;14.65;;;9.52;;
20421;SDS011;10370;53.102;18.034;2023-09-12T14:48:12;14.85;;;9.70;;
20421;SDS011;10370;53.102;18.034;2023-09-12T14:53:35;11.50;;;9.77;;
20421;SDS011;10370;53.102;18.034;2023-09-12T14:58:57;15.27;;;10.10;;
20421;SDS011;10370;53.102;18.034;2023-09-12T15:04:20;13.48;;;9.90;;
20421;SDS011;10370;53.102;18.034;2023-09-12T15:09:49;14.63;;;9.90;;
20421;SDS011;10370;53.102;18.034;2023-09-12T15:15:12;16.20;;;9.75;;
20421;SDS011;10370;53.102;18.034;2023-09-12T15:20:35;14.98;;;10.00;;
20421;SDS011;10370;53.102;18.034;2023-09-12T15:25:58;17.17;;;10.20;;
20421;SDS011;10370;53.102;18.034;2023-09-12T15:31:20;11.82;;;9.82;;
20421;SDS011;10370;53.102;18.034;2023-09-12T15:36:44;11.05;;;8.98;;
20421;SDS011;10370;53.102;18.034;2023-09-12T15:42:08;14.93;;;9.50;;
20421;SDS011;10370;53.102;18.034;2023-09-12T15:47:44;11.65;;;9.82;;
20421;SDS011;10370;53.102;18.034;2023-09-12T15:53:10;14.93;;;10.40;;
20421;SDS011;10370;53.102;18.034;2023-09-12T15:58:33;13.65;;;10.02;;
20421;SDS011;10370;53.102;18.034;2023-09-12T16:03:56;18.58;;;11.07;;
20421;SDS011;10370;53.102;18.034;2023-09-12T16:09:20;43.50;;;12.80;;
20421;SDS011;10370;53.102;18.034;2023-09-12T16:14:43;37.13;;;11.40;;
20421;SDS011;10370;53.102;18.034;2023-09-12T16:20:06;36.42;;;11.35;;
20421;SDS011;10370;53.102;18.034;2023-09-12T16:25:31;31.48;;;12.05;;
20421;SDS011;10370;53.102;18.034;2023-09-12T16:30:54;43.83;;;12.90;;
20421;SDS011;10370;53.102;18.034;2023-09-12T16:36:17;23.77;;;11.95;;
20421;SDS011;10370;53.102;18.034;2023-09-12T16:41:39;32.47;;;13.15;;
20421;SDS011;10370;53.102;18.034;2023-09-12T16:47:02;31.02;;;12.75;;
20421;SDS011;10370;53.102;18.034;2023-09-12T16:52:26;28.17;;;13.27;;
20421;SDS011;10370;53.102;18.034;2023-09-12T16:57:51;40.55;;;13.75;;
20421;SDS011;10370;53.102;18.034;2023-09-12T17:03:14;45.95;;;14.23;;
20421;SDS011;10370;53.102;18.034;2023-09-12T17:08:37;41.33;;;13.98;;
20421;SDS011;10370;53.102;18.034;2023-09-12T17:13:59;37.15;;;14.18;;
20421;SDS011;10370;53.102;18.034;2023-09-12T17:19:25;40.20;;;14.85;;
20421;SDS011;10370;53.102;18.034;2023-09-12T17:24:48;25.85;;;14.25;;
20421;SDS011;10370;53.102;18.034;2023-09-12T17:30:10;46.00;;;14.73;;
20421;SDS011;10370;53.102;18.034;2023-09-12T17:35:34;35.90;;;13.98;;
20421;SDS011;10370;53.102;18.034;2023-09-12T17:40:57;31.23;;;13.27;;
20421;SDS011;10370;53.102;18.034;2023-09-12T17:46:19;48.80;;;15.15;;
20421;SDS011;10370;53.102;18.034;2023-09-12T17:51:42;40.20;;;15.20;;
20421;SDS011;10370;53.102;18.034;2023-09-12T17:57:04;37.33;;;15.90;;
20421;SDS011;10370;53.102;18.034;2023-09-12T18:02:27;56.00;;;24.90;;
20421;SDS011;10370;53.102;18.034;2023-09-12T18:07:49;65.55;;;21.88;;
20421;SDS011;10370;53.102;18.034;2023-09-12T18:13:12;65.68;;;20.48;;
20421;SDS011;10370;53.102;18.034;2023-09-12T18:18:35;59.65;;;21.10;;
20421;SDS011;10370;53.102;18.034;2023-09-12T18:23:58;64.32;;;21.10;;
20421;SDS011;10370;53.102;18.034;2023-09-12T18:29:20;62.25;;;22.67;;
20421;SDS011;10370;53.102;18.034;2023-09-12T18:34:44;117.40;;;25.48;;
20421;SDS011;10370;53.102;18.034;2023-09-12T18:40:07;68.25;;;23.15;;
20421;SDS011;10370;53.102;18.034;2023-09-12T18:45:31;66.65;;;21.15;;
20421;SDS011;10370;53.102;18.034;2023-09-12T18:50:54;49.65;;;21.02;;
20421;SDS011;10370;53.102;18.034;2023-09-12T18:56:17;67.03;;;20.98;;
20421;SDS011;10370;53.102;18.034;2023-09-12T19:01:40;52.85;;;19.13;;
20421;SDS011;10370;53.102;18.034;2023-09-12T19:07:04;63.05;;;20.73;;
20421;SDS011;10370;53.102;18.034;2023-09-12T19:12:28;58.25;;;20.88;;
20421;SDS011;10370;53.102;18.034;2023-09-12T19:17:51;61.83;;;21.77;;
20421;SDS011;10370;53.102;18.034;2023-09-12T19:23:18;74.10;;;22.48;;
20421;SDS011;10370;53.102;18.034;2023-09-12T19:28:41;69.38;;;22.80;;
20421;SDS011;10370;53.102;18.034;2023-09-12T19:34:04;75.13;;;23.25;;
20421;SDS011;10370;53.102;18.034;2023-09-12T19:39:28;65.53;;;22.58;;
20421;SDS011;10370;53.102;18.034;2023-09-12T19:44:52;70.05;;;25.02;;
20421;SDS011;10370;53.102;18.034;2023-09-12T19:50:14;71.05;;;23.60;;
20421;SDS011;10370;53.102;18.034;2023-09-12T19:55:38;72.03;;;24.95;;
20421;SDS011;10370;53.102;18.034;2023-09-12T20:01:01;90.45;;;25.45;;
20421;SDS011;10370;53.102;18.034;2023-09-12T20:06:31;77.75;;;24.88;;
20421;SDS011;10370;53.102;18.034;2023-09-12T20:11:55;95.00;;;25.65;;
20421;SDS011;10370;53.102;18.034;2023-09-12T20:17:19;83.22;;;24.23;;
20421;SDS011;10370;53.102;18.034;2023-09-12T20:22:47;100.97;;;24.88;;
20421;SDS011;10370;53.102;18.034;2023-09-12T20:28:12;94.97;;;24.85;;
20421;SDS011;10370;53.102;18.034;2023-09-12T20:33:37;88.72;;;24.67;;
20421;SDS011;10370;53.102;18.034;2023-09-12T20:39:20;88.03;;;23.50;;
20421;SDS011;10370;53.102;18.034;2023-09-12T20:44:47;84.85;;;23.98;;
20421;SDS011;10370;53.102;18.034;2023-09-12T20:50:15;71.40;;;23.00;;
20421;SDS011;10370;53.102;18.034;2023-09-12T20:55:40;73.88;;;21.40;;
20421;SDS011;10370;53.102;18.034;2023-09-12T21:01:03;67.25;;;22.08;;
20421;SDS011;10370;53.102;18.034;2023-09-12T21:06:29;60.15;;;22.85;;
20421;SDS011;10370;53.102;18.034;2023-09-12T21:11:53;50.17;;;21.10;;
20421;SDS011;10370;53.102;18.034;2023-09-12T21:17:17;50.90;;;21.08;;
20421;SDS011;10370;53.102;18.034;2023-09-12T21:22:39;57.03;;;21.42;;
20421;SDS011;10370;53.102;18.034;2023-09-12T21:28:02;48.03;;;21.20;;
20421;SDS011;10370;53.102;18.034;2023-09-12T21:33:27;60.20;;;23.08;;
20421;SDS011;10370;53.102;18.034;2023-09-12T21:38:51;55.33;;;22.95;;
20421;SDS011;10370;53.102;18.034;2023-09-12T21:44:13;61.78;;;21.52;;
20421;SDS011;10370;53.102;18.034;2023-09-12T21:49:36;55.50;;;22.63;;
20421;SDS011;10370;53.102;18.034;2023-09-12T21:54:59;63.40;;;23.52;;
20421;SDS011;10370;53.102;18.034;2023-09-12T22:00:22;71.00;;;24.75;;
20421;SDS011;10370;53.102;18.034;2023-09-12T22:05:45;48.65;;;22.73;;
20421;SDS011;10370;53.102;18.034;2023-09-12T22:11:12;62.78;;;27.13;;
20421;SDS011;10370;53.102;18.034;2023-09-12T22:16:36;66.82;;;27.60;;
20421;SDS011;10370;53.102;18.034;2023-09-12T22:21:58;82.95;;;31.23;;
20421;SDS011;10370;53.102;18.034;2023-09-12T22:27:21;64.90;;;28.92;;
20421;SDS011;10370;53.102;18.034;2023-09-12T22:32:46;66.22;;;27.42;;
20421;SDS011;10370;53.102;18.034;2023-09-12T22:38:10;69.78;;;29.08;;
20421;SDS011;10370;53.102;18.034;2023-09-12T22:43:34;67.40;;;28.58;;
20421;SDS011;10370;53.102;18.034;2023-09-12T22:49:00;55.90;;;26.02;;
20421;SDS011;10370;53.102;18.034;2023-09-12T22:54:22;52.90;;;25.40;;
20421;SDS011;10370;53.102;18.034;2023-09-12T22:59:45;47.22;;;24.38;;
20421;SDS011;10370;53.102;18.034;2023-09-12T23:05:08;59.67;;;24.42;;
20421;SDS011;10370;53.102;18.034;2023-09-12T23:10:31;60.42;;;25.98;;
20421;SDS011;10370;53.102;18.034;2023-09-12T23:15:54;66.90;;;26.80;;
20421;SDS011;10370;53.102;18.034;2023-09-12T23:21:20;59.38;;;26.98;;
20421;SDS011;10370;53.102;18.034;2023-09-12T23:26:43;68.45;;;29.48;;
20421;SDS011;10370;53.102;18.034;2023-09-12T23:32:05;60.50;;;28.33;;
20421;SDS011;10370;53.102;18.034;2023-09-12T23:37:29;56.10;;;28.67;;
20421;SDS011;10370;53.102;18.034;2023-09-12T23:42:52;66.15;;;28.80;;
20421;SDS011;10370;53.102;18.034;2023-09-12T23:48:15;57.00;;;27.70;;
20421;SDS011;10370;53.102;18.034;2023-09-12T23:53:38;62.05;;;30.13;;
20421;SDS011;10370;53.102;18.034;2023-09-12T23:59:01;57.10;;;30.38;;
